Time;durP1;ratioP1;P1;durP2;ratioP2;P2;SDS_P1;SDS_P2;PMS_P1;PMS_P2;Temp;Humidity;BMP_temperature;BMP_pressure;BME280_temperature;BME280_humidity;BME280_pressure;Samples;Min_cycle;Max_cycle;Signal;HPM_P1;HPM_P2
2021/06/08 00:01:48;;;;;;;3.42;3.13;;;;;;;23.31;36.63;102373.19;4147732;28;20045;-60
2021/06/08 00:03:48;;;;;;;3.70;3.40;;;;;;;23.33;36.65;102373.81;4152717;28;20156;-60
2021/06/08 00:05:49;;;;;;;3.88;3.38;;;;;;;23.28;36.85;102368.16;4156561;28;20064;-60
2021/06/08 00:07:50;;;;;;;3.45;3.25;;;;;;;23.29;36.63;102373.47;4153235;28;20472;-58
2021/06/08 00:09:50;;;;;;;4.03;3.60;;;;;;;23.27;37.02;102372.09;4155677;28;20029;-58
2021/06/08 00:11:51;;;;;;;3.55;3.10;;;;;;;23.30;36.82;102366.78;4153933;28;20033;-59
2021/06/08 00:13:51;;;;;;;3.90;3.60;;;;;;;23.32;36.94;102370.16;4152341;28;20056;-60
2021/06/08 00:15:52;;;;;;;3.65;3.38;;;;;;;23.29;36.67;102367.06;4147828;28;20496;-61
2021/06/08 00:17:52;;;;;;;3.10;2.80;;;;;;;23.23;36.80;102360.59;4153577;28;20037;-61
2021/06/08 00:19:53;;;;;;;5.03;3.50;;;;;;;23.25;36.85;102369.56;4150790;28;20419;-62
2021/06/08 00:21:53;;;;;;;3.70;3.40;;;;;;;23.22;36.82;102363.66;4150907;28;20029;-61
2021/06/08 00:23:54;;;;;;;3.58;3.30;;;;;;;23.16;37.09;102355.25;4153578;28;20029;-58
2021/06/08 00:25:55;;;;;;;4.20;3.55;;;;;;;23.24;37.06;102362.28;4153694;28;20044;-59
2021/06/08 00:27:56;;;;;;;3.88;3.53;;;;;;;23.19;37.07;102359.47;4153440;28;20034;-59
2021/06/08 00:29:57;;;;;;;4.60;3.88;;;;;;;23.13;37.05;102349.41;4153149;28;20044;-59
2021/06/08 00:31:57;;;;;;;3.83;3.53;;;;;;;23.12;37.28;102368.09;4151115;28;20037;-59
2021/06/08 00:33:58;;;;;;;4.60;4.30;;;;;;;23.02;37.31;102351.28;4152923;28;20063;-59
2021/06/08 00:35:58;;;;;;;3.85;3.55;;;;;;;23.10;37.44;102361.94;4152972;28;20041;-60
2021/06/08 00:37:59;;;;;;;3.70;3.40;;;;;;;23.10;37.28;102361.94;4152631;28;20526;-60
2021/06/08 00:39:59;;;;;;;4.32;4.03;;;;;;;23.09;36.98;102363.03;4153693;28;20057;-60
2021/06/08 00:42:00;;;;;;;3.88;3.58;;;;;;;22.92;37.65;102334.47;4154071;28;20415;-60
2021/06/08 00:44:04;;;;;;;4.22;3.78;;;;;;;23.10;37.54;102367.53;4151710;28;20132;-59
2021/06/08 00:46:05;;;;;;;4.97;3.95;;;;;;;23.02;37.83;102362.47;4151452;28;20495;-59
2021/06/08 00:48:06;;;;;;;4.47;4.07;;;;;;;22.95;37.96;102353.47;4143335;28;20064;-59
2021/06/08 00:50:07;;;;;;;4.78;4.38;;;;;;;23.01;37.52;102360.78;4133847;28;20044;-59
2021/06/08 00:52:08;;;;;;;4.05;3.75;;;;;;;22.98;37.77;102364.09;4150352;28;20198;-59
2021/06/08 00:54:12;;;;;;;6.40;3.97;;;;;;;22.98;37.89;102366.91;4149128;28;20033;-59
2021/06/08 00:56:12;;;;;;;4.22;3.88;;;;;;;23.05;37.69;102364.72;4153764;28;20114;-59
2021/06/08 00:58:12;;;;;;;3.78;3.47;;;;;;;22.99;37.65;102363.00;4147770;28;20475;-59
2021/06/08 01:00:13;;;;;;;4.57;4.18;;;;;;;23.07;37.76;102361.66;4153156;28;20034;-59
2021/06/08 01:02:15;;;;;;;4.68;3.97;;;;;;;22.94;37.66;102349.00;4152504;28;20103;-59
2021/06/08 01:04:15;;;;;;;3.67;3.38;;;;;;;22.91;37.79;102363.50;4154725;28;20128;-59
2021/06/08 01:06:16;;;;;;;3.53;3.22;;;;;;;22.90;37.64;102362.66;4151402;28;20621;-59
2021/06/08 01:08:16;;;;;;;3.90;3.47;;;;;;;22.90;37.93;102359.88;4156664;28;20025;-59
2021/06/08 01:10:17;;;;;;;5.20;3.97;;;;;;;22.76;38.03;102341.94;4150536;28;20052;-59
2021/06/08 01:12:17;;;;;;;4.20;3.90;;;;;;;22.77;38.35;102352.81;4151810;28;20021;-59
2021/06/08 01:14:17;;;;;;;4.10;3.80;;;;;;;22.92;37.82;102367.97;4152612;28;20037;-59
2021/06/08 01:16:18;;;;;;;3.83;3.53;;;;;;;22.84;38.06;102360.13;4153014;28;20044;-59
2021/06/08 01:18:18;;;;;;;5.05;3.85;;;;;;;22.89;37.93;102365.72;4153408;28;20056;-59
2021/06/08 01:20:19;;;;;;;3.90;3.60;;;;;;;22.89;37.87;102354.56;4153312;28;20053;-59
2021/06/08 01:22:20;;;;;;;4.30;3.90;;;;;;;22.86;38.04;102372.69;4151808;28;20069;-58
2021/06/08 01:24:20;;;;;;;4.18;3.88;;;;;;;22.88;37.65;102364.03;4152745;28;20067;-57
2021/06/08 01:26:26;;;;;;;5.20;4.10;;;;;;;22.72;38.09;102355.56;4152333;28;20045;-52
2021/06/08 01:28:29;;;;;;;4.32;3.95;;;;;;;22.82;37.91;102359.53;4152456;28;20032;-54
2021/06/08 01:30:30;;;;;;;4.28;3.97;;;;;;;22.79;37.99;102356.19;4148962;28;20033;-54
2021/06/08 01:32:32;;;;;;;4.28;3.85;;;;;;;22.83;38.12;102361.22;4157071;28;20506;-52
2021/06/08 01:34:34;;;;;;;4.05;3.75;;;;;;;22.81;37.92;102358.69;4153077;28;20869;-55
2021/06/08 01:36:39;;;;;;;4.03;3.72;;;;;;;22.83;37.90;102356.47;4153873;28;20064;-53
2021/06/08 01:38:41;;;;;;;4.32;3.92;;;;;;;22.87;37.88;102356.78;4156187;28;20029;-59
2021/06/08 01:40:43;;;;;;;5.13;4.50;;;;;;;22.73;37.98;102345.25;4159581;28;20384;-55
2021/06/08 01:42:44;;;;;;;4.30;3.72;;;;;;;22.80;38.03;102360.66;4155746;28;20040;-59
2021/06/08 01:44:46;;;;;;;4.47;3.90;;;;;;;22.83;37.90;102362.06;4151430;28;20450;-60
2021/06/08 01:46:47;;;;;;;5.05;4.63;;;;;;;22.75;38.15;102349.44;4160121;28;20533;-60
2021/06/08 01:48:49;;;;;;;6.07;4.38;;;;;;;22.72;38.16;102355.56;4154503;28;20029;-57
2021/06/08 01:50:50;;;;;;;4.50;4.10;;;;;;;22.76;38.08;102351.13;4154874;28;20116;-58
2021/06/08 01:52:59;;;;;;;4.88;4.35;;;;;;;22.68;38.37;102354.44;4159062;28;20442;-50
2021/06/08 01:55:07;;;;;;;4.55;4.15;;;;;;;22.68;38.55;102351.66;4156920;28;20037;-52
2021/06/08 01:57:15;;;;;;;5.20;4.70;;;;;;;22.74;38.02;102350.56;4153334;28;20033;-54
2021/06/08 01:59:15;;;;;;;5.30;4.22;;;;;;;22.70;38.41;102348.59;4157998;28;20589;-50
2021/06/08 02:01:21;;;;;;;4.95;4.43;;;;;;;22.62;38.44;102355.47;4156421;28;20041;-50
2021/06/08 02:03:32;;;;;;;4.60;4.20;;;;;;;22.60;38.65;102357.69;4155479;28;20154;-54
2021/06/08 02:05:57;;;;;;;4.78;4.38;;;;;;;22.68;38.40;102356.38;4153061;28;20426;-50
2021/06/08 02:08:28;;;;;;;4.80;4.43;;;;;;;22.62;38.40;102350.72;4148827;28;20037;-53
2021/06/08 02:10:48;;;;;;;7.15;4.38;;;;;;;22.60;38.44;102357.69;4153220;28;20048;-54
2021/06/08 02:13:03;;;;;;;3.45;3.25;;;;;;;22.52;38.26;102333.06;4154829;28;20356;-56
2021/06/08 02:15:07;;;;;;;4.43;4.13;;;;;;;22.60;38.66;102357.69;4154550;28;20064;-56
2021/06/08 02:17:16;;;;;;;4.53;4.22;;;;;;;22.57;38.24;102358.22;4154806;28;20030;-55
2021/06/08 02:19:20;;;;;;;4.70;4.30;;;;;;;22.58;38.41;102363.53;4155496;28;20128;-55
2021/06/08 02:21:28;;;;;;;4.53;3.75;;;;;;;22.59;38.73;102370.81;4154978;28;20115;-58
2021/06/08 02:23:30;;;;;;;4.55;4.15;;;;;;;22.59;38.33;102361.59;4152182;28;20036;-58
2021/06/08 02:25:33;;;;;;;4.80;4.40;;;;;;;22.55;38.36;102352.06;4155198;28;20049;-58
2021/06/08 02:27:34;;;;;;;5.30;3.78;;;;;;;22.58;38.63;102368.28;4154475;28;20064;-58
2021/06/08 02:29:38;;;;;;;4.70;4.40;;;;;;;22.48;38.65;102374.63;4135339;28;20498;-58
2021/06/08 02:31:43;;;;;;;4.72;4.20;;;;;;;22.45;38.64;102350.06;4158169;28;20025;-54
2021/06/08 02:33:46;;;;;;;5.00;4.60;;;;;;;22.47;38.55;102358.97;4152941;28;20076;-55
2021/06/08 02:35:48;;;;;;;7.53;3.97;;;;;;;22.52;38.66;102367.38;4153729;28;20069;-55
2021/06/08 02:37:50;;;;;;;4.25;3.85;;;;;;;22.49;38.68;102370.72;4153957;28;20048;-58
2021/06/08 02:39:51;;;;;;;9.38;4.20;;;;;;;22.44;38.97;102377.09;4152642;28;20041;-53
2021/06/08 02:41:53;;;;;;;4.30;4.00;;;;;;;22.42;38.82;102368.16;4153150;28;20033;-56
2021/06/08 02:43:54;;;;;;;5.63;3.75;;;;;;;22.43;38.91;102378.22;4154831;28;20030;-51
2021/06/08 02:45:56;;;;;;;4.10;3.80;;;;;;;22.39;38.78;102377.06;4151693;28;20128;-55
2021/06/08 02:47:58;;;;;;;4.18;3.88;;;;;;;22.47;38.76;102383.28;4155690;28;20454;-51
2021/06/08 02:50:00;;;;;;;4.07;3.63;;;;;;;22.45;38.74;102389.94;4153704;28;20136;-52
2021/06/08 02:52:00;;;;;;;4.18;3.88;;;;;;;22.45;38.81;102387.16;4156341;28;20131;-50
2021/06/08 02:54:02;;;;;;;4.13;3.72;;;;;;;22.45;38.74;102389.94;4155210;28;20028;-50
2021/06/08 02:56:05;;;;;;;5.82;3.88;;;;;;;22.41;38.74;102383.22;4153184;28;20041;-53
2021/06/08 02:58:06;;;;;;;4.15;3.85;;;;;;;22.36;38.86;102380.38;4155597;28;20076;-50
2021/06/08 03:00:08;;;;;;;5.65;4.35;;;;;;;22.47;38.84;102388.84;4153679;28;20038;-52
2021/06/08 03:02:12;;;;;;;4.43;3.50;;;;;;;22.39;38.57;102391.00;4155016;28;20037;-51
2021/06/08 03:04:18;;;;;;;5.38;4.07;;;;;;;22.39;38.74;102390.19;4154919;28;20022;-52
2021/06/08 03:06:22;;;;;;;4.70;4.05;;;;;;;22.38;38.68;102380.94;4152254;28;20630;-53
2021/06/08 03:08:31;;;;;;;3.83;3.63;;;;;;;22.39;38.46;102382.63;4150418;28;20036;-54
2021/06/08 03:10:35;;;;;;;4.60;4.10;;;;;;;22.34;39.02;102392.94;4154569;28;20077;-55
2021/06/08 03:12:42;;;;;;;5.05;3.72;;;;;;;22.37;38.87;102387.66;4158421;28;20033;-53
2021/06/08 03:14:46;;;;;;;4.38;3.97;;;;;;;22.33;38.83;102380.91;4154405;28;20484;-54
2021/06/08 03:16:54;;;;;;;4.32;3.30;;;;;;;22.30;38.82;102381.44;4155345;28;20060;-52
2021/06/08 03:18:57;;;;;;;4.30;3.95;;;;;;;22.21;39.02;102369.09;4157171;28;20434;-53
2021/06/08 03:21:01;;;;;;;3.70;3.47;;;;;;;22.32;38.93;102396.00;4152762;28;20112;-55
2021/06/08 03:23:05;;;;;;;3.58;3.35;;;;;;;22.30;39.05;102392.59;4153445;28;20460;-55
2021/06/08 03:25:06;;;;;;;3.97;3.53;;;;;;;22.17;38.92;102393.06;4154692;28;20464;-53
2021/06/08 03:27:07;;;;;;;3.85;3.55;;;;;;;22.17;38.92;102379.13;4153935;28;20036;-59
2021/06/08 03:29:11;;;;;;;3.83;3.53;;;;;;;22.18;39.23;102377.97;4151552;28;20384;-60
2021/06/08 03:31:12;;;;;;;5.43;3.42;;;;;;;22.26;39.13;102386.72;4152299;28;20131;-59
2021/06/08 03:33:13;;;;;;;4.18;3.88;;;;;;;22.20;39.16;102386.94;4153458;28;20065;-60
2021/06/08 03:35:14;;;;;;;3.30;3.00;;;;;;;22.19;39.16;102386.09;4153279;28;20524;-55
2021/06/08 03:37:15;;;;;;;4.20;3.83;;;;;;;22.23;38.96;102392.00;4152701;28;20052;-59
2021/06/08 03:39:17;;;;;;;4.30;3.47;;;;;;;22.19;39.06;102399.19;4151651;28;20030;-59
2021/06/08 03:41:19;;;;;;;3.70;3.40;;;;;;;22.17;39.34;102398.63;4156042;28;20037;-60
2021/06/08 03:43:20;;;;;;;3.63;3.33;;;;;;;22.14;39.11;102400.00;4147976;28;20084;-59
2021/06/08 03:45:22;;;;;;;3.90;3.42;;;;;;;22.08;39.07;102384.31;4152717;28;20489;-59
2021/06/08 03:47:22;;;;;;;3.50;3.22;;;;;;;22.14;39.11;102390.78;4133777;28;20412;-56
2021/06/08 03:49:23;;;;;;;3.45;3.15;;;;;;;22.11;39.18;102394.94;4153808;28;20030;-58
2021/06/08 03:51:28;;;;;;;3.63;3.33;;;;;;;22.05;39.28;102391.25;4154497;28;20095;-58
2021/06/08 03:53:29;;;;;;;3.10;2.90;;;;;;;22.15;39.20;102393.31;4154126;28;20045;-58
2021/06/08 03:55:29;;;;;;;3.55;3.22;;;;;;;22.12;39.14;102392.97;4157329;28;20188;-57
2021/06/08 03:57:33;;;;;;;3.20;3.00;;;;;;;22.09;39.16;102398.00;4154601;28;20033;-55
2021/06/08 03:59:35;;;;;;;3.20;3.00;;;;;;;22.12;38.88;102395.78;4155707;28;20484;-55
2021/06/08 04:01:37;;;;;;;3.00;2.80;;;;;;;22.03;39.21;102392.63;4154289;28;20029;-52
2021/06/08 04:03:38;;;;;;;2.63;2.53;;;;;;;22.14;39.03;102391.63;4152417;28;20045;-51
2021/06/08 04:05:40;;;;;;;2.85;2.65;;;;;;;22.08;39.37;102390.72;4154233;28;20426;-55
2021/06/08 04:07:46;;;;;;;2.80;2.60;;;;;;;22.08;38.95;102390.72;4153433;28;20045;-54
2021/06/08 04:09:50;;;;;;;3.25;2.65;;;;;;;22.13;39.34;102395.50;4153100;28;20585;-55
2021/06/08 04:11:51;;;;;;;3.10;2.90;;;;;;;22.09;39.14;102394.38;4155816;28;20039;-54
2021/06/08 04:13:55;;;;;;;2.85;2.65;;;;;;;22.11;38.82;102399.69;4156058;28;20116;-54
2021/06/08 04:15:57;;;;;;;2.95;2.72;;;;;;;22.06;39.08;102392.94;4153246;28;20037;-52
2021/06/08 04:17:58;;;;;;;3.40;3.10;;;;;;;22.05;39.08;102396.81;4154521;28;20057;-54
2021/06/08 04:20:00;;;;;;;4.03;2.60;;;;;;;22.05;39.06;102391.25;4154872;28;20037;-52
2021/06/08 04:22:00;;;;;;;2.60;2.40;;;;;;;22.05;39.14;102391.25;4158396;28;20079;-49
2021/06/08 04:24:03;;;;;;;2.72;2.53;;;;;;;22.03;39.02;102396.25;4153741;28;20030;-52
2021/06/08 04:26:04;;;;;;;2.50;2.30;;;;;;;22.02;38.90;102397.34;4150105;28;20033;-60
2021/06/08 04:28:04;;;;;;;3.08;2.80;;;;;;;22.02;38.84;102394.56;4136688;28;20583;-60
2021/06/08 04:30:09;;;;;;;2.10;2.00;;;;;;;22.00;39.23;102407.94;4152094;28;20034;-60
2021/06/08 04:32:10;;;;;;;4.20;2.63;;;;;;;22.03;39.19;102406.59;4150014;28;20346;-53
2021/06/08 04:34:10;;;;;;;2.88;2.60;;;;;;;21.92;39.18;102405.59;4152171;28;20049;-50
2021/06/08 04:36:15;;;;;;;2.78;2.58;;;;;;;21.97;39.05;102400.06;4154275;28;20061;-53
2021/06/08 04:38:16;;;;;;;2.83;2.63;;;;;;;21.99;39.12;102406.25;4154532;28;20068;-53
2021/06/08 04:40:17;;;;;;;2.63;2.42;;;;;;;21.97;39.49;102405.66;4152436;28;20109;-52
2021/06/08 04:42:18;;;;;;;3.67;2.60;;;;;;;21.90;39.43;102405.00;4152098;28;20306;-54
2021/06/08 04:44:22;;;;;;;3.00;2.80;;;;;;;21.97;39.46;102407.59;4152444;28;20025;-49
2021/06/08 04:46:23;;;;;;;3.63;2.80;;;;;;;21.89;39.34;102406.13;4152456;28;20461;-56
2021/06/08 04:48:24;;;;;;;3.03;2.83;;;;;;;21.94;39.39;102403.38;4152387;28;20033;-54
2021/06/08 04:50:26;;;;;;;3.05;2.85;;;;;;;21.94;39.20;102410.91;4154292;28;20040;-55
2021/06/08 04:52:26;;;;;;;3.08;2.78;;;;;;;21.85;39.41;102413.31;4154191;28;20389;-52
2021/06/08 04:54:27;;;;;;;2.60;2.40;;;;;;;21.87;39.53;102406.38;4155304;28;20040;-54
2021/06/08 04:56:27;;;;;;;2.72;2.50;;;;;;;21.92;39.40;102405.59;4155202;28;20690;-53
2021/06/08 04:58:28;;;;;;;2.83;2.50;;;;;;;21.86;39.35;102398.28;4149935;28;20503;-52
2021/06/08 05:00:59;;;;;;;4.03;2.95;;;;;;;22.00;39.23;102415.47;4145438;28;20041;-49
2021/06/08 05:03:09;;;;;;;2.95;2.65;;;;;;;21.89;39.24;102403.34;4155113;28;20112;-49
2021/06/08 05:05:18;;;;;;;2.70;2.50;;;;;;;21.94;39.34;102405.34;4152674;28;20103;-50
2021/06/08 05:07:21;;;;;;;4.53;2.90;;;;;;;21.94;39.30;102403.38;4152827;28;20041;-51
2021/06/08 05:09:24;;;;;;;2.78;2.60;;;;;;;21.91;39.35;102413.09;4154063;28;20523;-50
2021/06/08 05:11:33;;;;;;;2.75;2.55;;;;;;;21.94;39.45;102408.13;4150342;28;20029;-51
2021/06/08 05:13:36;;;;;;;3.30;2.47;;;;;;;21.81;39.24;102379.56;4154158;28;20163;-52
2021/06/08 05:15:38;;;;;;;3.25;2.40;;;;;;;21.93;39.46;102393.31;4148955;28;20480;-54
2021/06/08 05:17:38;;;;;;;3.45;2.65;;;;;;;21.89;39.16;102387.44;4150936;28;20503;-54
2021/06/08 05:19:39;;;;;;;2.95;2.75;;;;;;;21.99;39.22;102391.47;4152539;28;20057;-55
2021/06/08 05:21:44;;;;;;;4.00;2.47;;;;;;;22.04;38.94;102399.88;4129980;28;21442;-52
2021/06/08 05:23:51;;;;;;;4.63;2.50;;;;;;;21.97;39.20;102391.69;4150842;28;20056;-53
2021/06/08 05:25:52;;;;;;;2.60;2.40;;;;;;;21.95;39.07;102402.28;4151179;28;20172;-54
2021/06/08 05:27:52;;;;;;;2.85;2.58;;;;;;;21.94;39.14;102391.41;4153807;28;20041;-52
2021/06/08 05:29:56;;;;;;;3.13;2.90;;;;;;;22.02;39.20;102397.34;4153626;28;20037;-51
2021/06/08 05:31:58;;;;;;;2.85;2.65;;;;;;;21.96;38.95;102380.81;4150493;28;20053;-54
2021/06/08 05:34:00;;;;;;;3.05;2.50;;;;;;;22.00;38.90;102380.06;4153834;28;20117;-51
2021/06/08 05:36:01;;;;;;;3.05;2.10;;;;;;;22.15;38.66;102389.66;4152268;28;20088;-54
2021/06/08 05:38:06;;;;;;;2.70;2.50;;;;;;;22.19;38.63;102399.19;4150330;28;20030;-51
2021/06/08 05:40:07;;;;;;;2.22;1.85;;;;;;;22.15;38.43;102400.81;4153274;28;20033;-53
2021/06/08 05:42:11;;;;;;;3.50;2.70;;;;;;;22.18;38.32;102400.28;4136389;28;20519;-52
2021/06/08 05:44:14;;;;;;;2.13;2.03;;;;;;;22.20;38.19;102395.31;4151511;28;20465;-52
2021/06/08 05:46:14;;;;;;;3.67;2.25;;;;;;;22.19;38.14;102390.84;4152377;28;20531;-52
2021/06/08 05:48:15;;;;;;;2.28;2.00;;;;;;;22.24;38.04;102393.66;4155828;28;20034;-58
2021/06/08 05:50:16;;;;;;;2.33;1.90;;;;;;;22.24;38.00;102396.44;4150881;28;20033;-55
2021/06/08 05:52:17;;;;;;;2.22;2.03;;;;;;;22.28;38.39;102394.81;4151890;28;20439;-55
2021/06/08 05:54:18;;;;;;;2.83;2.30;;;;;;;22.27;38.16;102407.06;4147702;28;20034;-55
2021/06/08 05:56:20;;;;;;;3.75;2.08;;;;;;;22.27;37.90;102407.06;4151740;28;20038;-55
2021/06/08 05:58:26;;;;;;;2.28;2.00;;;;;;;22.29;37.96;102396.53;4151982;28;20076;-54
2021/06/08 06:00:27;;;;;;;3.58;2.00;;;;;;;22.26;37.93;102392.31;4151181;28;20033;-51
2021/06/08 06:02:32;;;;;;;3.25;2.00;;;;;;;22.26;37.84;102395.09;4152756;28;20068;-58
2021/06/08 06:04:33;;;;;;;2.80;1.77;;;;;;;22.26;37.50;102397.06;4156053;28;20041;-58
2021/06/08 06:06:33;;;;;;;2.67;1.92;;;;;;;22.27;37.24;102398.72;4152141;28;20041;-59
2021/06/08 06:08:34;;;;;;;4.90;2.05;;;;;;;22.15;37.52;102389.66;4150000;28;20033;-59
2021/06/08 06:10:35;;;;;;;3.13;1.88;;;;;;;22.13;37.57;102384.34;4152937;28;20092;-58
2021/06/08 06:12:39;;;;;;;4.57;2.10;;;;;;;22.06;37.75;102387.38;4148935;28;20079;-58
2021/06/08 06:14:41;;;;;;;3.67;2.25;;;;;;;22.05;37.79;102394.03;4149578;28;20037;-58
2021/06/08 06:16:46;;;;;;;2.75;2.08;;;;;;;22.05;37.49;102391.25;4147742;28;20071;-58
2021/06/08 06:18:46;;;;;;;3.47;2.15;;;;;;;22.01;38.14;102386.47;4150578;28;20042;-57
2021/06/08 06:20:49;;;;;;;1.80;1.70;;;;;;;22.05;37.99;102387.63;4151196;28;21657;-57
2021/06/08 06:22:50;;;;;;;2.50;1.60;;;;;;;22.01;38.09;102392.03;4149228;28;20025;-58
2021/06/08 06:24:51;;;;;;;2.40;2.20;;;;;;;21.93;38.09;102393.31;4155712;28;20343;-57
2021/06/08 06:26:51;;;;;;;7.60;2.40;;;;;;;22.05;38.01;102396.00;4153150;28;20030;-58
2021/06/08 06:28:53;;;;;;;5.38;1.95;;;;;;;22.06;37.68;102401.31;4154727;28;20091;-58
2021/06/08 06:30:54;;;;;;;2.25;1.83;;;;;;;22.03;37.51;102399.06;4154536;28;20056;-58
2021/06/08 06:32:55;;;;;;;2.38;1.73;;;;;;;22.05;37.29;102393.22;4153914;28;20483;-59
2021/06/08 06:34:55;;;;;;;4.90;2.22;;;;;;;22.09;37.65;102398.00;4157544;28;20061;-59
2021/06/08 06:36:58;;;;;;;3.28;1.70;;;;;;;22.10;37.63;102404.41;4151786;28;20603;-59
2021/06/08 06:39:04;;;;;;;3.22;2.08;;;;;;;22.03;37.90;102401.00;4156302;28;20455;-59
2021/06/08 06:41:08;;;;;;;3.63;1.95;;;;;;;22.08;37.29;102403.84;4153670;28;20026;-59
2021/06/08 06:43:14;;;;;;;2.30;2.05;;;;;;;22.08;37.65;102404.66;4156102;28;20444;-59
2021/06/08 06:45:18;;;;;;;2.03;1.60;;;;;;;22.05;37.73;102401.56;4151632;28;20147;-59
2021/06/08 06:47:19;;;;;;;2.35;1.80;;;;;;;22.08;37.41;102399.09;4158018;28;20029;-59
2021/06/08 06:49:21;;;;;;;3.75;1.90;;;;;;;22.11;37.46;102406.09;4154295;28;20258;-58
2021/06/08 06:51:23;;;;;;;2.95;1.80;;;;;;;22.12;37.81;102405.00;4155474;28;20455;-58
2021/06/08 06:53:23;;;;;;;5.13;2.50;;;;;;;22.14;38.09;102402.78;4154960;28;20616;-59
2021/06/08 06:55:25;;;;;;;2.28;2.08;;;;;;;22.16;37.65;102413.69;4156880;28;20044;-58
2021/06/08 06:57:26;;;;;;;3.05;1.60;;;;;;;22.14;37.82;102411.16;4150468;28;20326;-58
2021/06/08 06:59:27;;;;;;;3.78;1.75;;;;;;;22.14;38.32;102408.34;4156339;28;20025;-59
2021/06/08 07:01:28;;;;;;;4.13;1.70;;;;;;;22.23;37.43;102403.16;4150685;28;20049;-59
2021/06/08 07:03:31;;;;;;;6.35;1.75;;;;;;;22.22;37.75;102398.69;4156688;28;20048;-59
2021/06/08 07:05:32;;;;;;;4.50;1.75;;;;;;;22.23;37.87;102404.00;4150033;28;21129;-59
2021/06/08 07:07:33;;;;;;;3.22;1.80;;;;;;;22.25;37.90;102407.34;4149000;28;20034;-59
2021/06/08 07:09:34;;;;;;;2.58;2.13;;;;;;;22.23;37.92;102405.94;4154227;28;20033;-59
2021/06/08 07:11:36;;;;;;;4.15;1.92;;;;;;;22.18;37.96;102412.31;4152144;28;20038;-59
2021/06/08 07:13:36;;;;;;;6.03;2.35;;;;;;;22.19;38.39;102397.25;4150415;28;20029;-59
2021/06/08 07:15:38;;;;;;;4.78;2.20;;;;;;;22.26;38.15;102408.19;4137147;28;20045;-59
2021/06/08 07:17:39;;;;;;;2.20;1.50;;;;;;;22.27;37.64;102409.88;4159152;28;20039;-59
2021/06/08 07:19:41;;;;;;;11.35;1.90;;;;;;;22.28;37.79;102405.97;4156710;28;20029;-57
2021/06/08 07:21:43;;;;;;;2.60;1.45;;;;;;;22.31;37.88;102404.63;4157406;28;20040;-56
2021/06/08 07:23:46;;;;;;;4.45;1.70;;;;;;;22.31;37.90;102405.47;4156991;28;20033;-56
2021/06/08 07:25:50;;;;;;;4.30;1.75;;;;;;;22.35;37.69;102405.75;4150494;28;20100;-51
2021/06/08 07:27:52;;;;;;;2.72;1.50;;;;;;;22.29;38.13;102402.09;4155005;28;20787;-50
2021/06/08 07:29:52;;;;;;;3.28;1.50;;;;;;;22.24;37.80;102386.16;4153010;28;20052;-50
2021/06/08 07:32:06;;;;;;;2.13;1.83;;;;;;;22.36;37.79;102397.13;4152779;28;20071;-50
2021/06/08 07:34:11;;;;;;;3.38;1.85;;;;;;;22.39;37.47;102395.75;4153310;28;20456;-49
2021/06/08 07:36:21;;;;;;;5.32;2.22;;;;;;;22.25;37.58;102371.09;4151990;28;20056;-51
2021/06/08 07:39:04;;;;;;;5.38;1.67;;;;;;;22.42;37.45;102384.91;4156114;28;20080;-53
2021/06/08 07:41:08;;;;;;;6.28;1.92;;;;;;;22.35;37.46;102389.84;4144465;28;20148;-49
2021/06/08 07:43:13;;;;;;;7.93;1.73;;;;;;;22.44;37.38;102391.03;4154508;28;20022;-49
2021/06/08 07:45:18;;;;;;;5.00;1.90;;;;;;;22.45;37.56;102400.28;4155902;28;20033;-50
2021/06/08 07:47:21;;;;;;;4.45;1.60;;;;;;;22.39;37.49;102393.81;4155708;28;20116;-50
2021/06/08 07:49:22;;;;;;;7.43;1.60;;;;;;;22.38;37.99;102394.06;4155572;28;20550;-51
2021/06/08 07:51:24;;;;;;;2.65;1.63;;;;;;;22.41;37.74;102394.38;4158091;28;20014;-49
2021/06/08 07:53:30;;;;;;;4.88;1.90;;;;;;;22.39;37.84;102396.59;4154238;28;20053;-49
2021/06/08 07:55:32;;;;;;;3.67;1.75;;;;;;;22.46;37.32;102393.56;4156111;28;20030;-53
2021/06/08 07:57:32;;;;;;;6.38;1.83;;;;;;;22.44;37.63;102393.84;4155216;28;20759;-53
2021/06/08 07:59:34;;;;;;;4.75;1.60;;;;;;;22.47;37.40;102392.47;4153493;28;20037;-53
2021/06/08 08:01:35;;;;;;;1.73;1.40;;;;;;;22.50;37.31;102393.91;4157371;28;20510;-51
2021/06/08 08:03:37;;;;;;;5.00;1.60;;;;;;;22.47;37.28;102398.06;4154886;28;20053;-49
2021/06/08 08:05:37;;;;;;;4.78;1.90;;;;;;;22.50;37.18;102394.72;4155011;28;20036;-54
2021/06/08 08:07:38;;;;;;;2.40;1.70;;;;;;;22.53;37.35;102385.00;4157936;28;20065;-53
2021/06/08 08:09:38;;;;;;;1.63;1.50;;;;;;;22.49;37.19;102383.84;4157342;28;20450;-54
2021/06/08 08:11:42;;;;;;;5.07;1.58;;;;;;;22.31;37.08;102377.56;4135948;28;20085;-51
2021/06/08 08:13:50;;;;;;;2.20;1.35;;;;;;;22.53;36.73;102387.78;4150827;28;20415;-52
2021/06/08 08:15:52;;;;;;;3.25;1.30;;;;;;;22.53;37.05;102382.19;4155893;28;20028;-51
2021/06/08 08:17:53;;;;;;;6.93;1.70;;;;;;;22.54;36.52;102386.66;4138648;28;20041;-53
2021/06/08 08:19:54;;;;;;;2.83;1.38;;;;;;;22.55;36.28;102383.59;4155129;28;20025;-54
2021/06/08 08:21:55;;;;;;;3.53;1.40;;;;;;;22.51;36.06;102379.69;4150137;28;20146;-51
2021/06/08 08:23:55;;;;;;;2.13;1.63;;;;;;;22.56;36.11;102387.25;4155679;28;20610;-53
2021/06/08 08:25:57;;;;;;;3.65;1.20;;;;;;;22.60;36.60;102382.78;4154077;28;20044;-54
2021/06/08 08:27:58;;;;;;;2.08;1.33;;;;;;;22.47;36.43;102386.06;4137334;28;20030;-55
2021/06/08 08:29:58;;;;;;;2.08;1.10;;;;;;;22.55;36.51;102374.41;4156432;28;20132;-55
2021/06/08 08:31:59;;;;;;;4.00;1.83;;;;;;;22.45;35.30;102383.53;4155606;28;20041;-54
2021/06/08 08:34:00;;;;;;;1.83;1.40;;;;;;;22.39;35.54;102385.44;4154596;28;20728;-55
2021/06/08 08:36:01;;;;;;;2.13;1.10;;;;;;;22.61;35.33;102378.91;4156629;28;20038;-54
2021/06/08 08:38:03;;;;;;;4.15;1.40;;;;;;;22.60;35.44;102372.50;4155077;28;20044;-52
2021/06/08 08:40:03;;;;;;;2.58;0.90;;;;;;;22.58;36.00;102373.84;4149789;28;20083;-54
2021/06/08 08:42:07;;;;;;;1.88;1.10;;;;;;;22.50;35.44;102366.00;4152360;28;20663;-53
2021/06/08 08:44:08;;;;;;;2.13;0.98;;;;;;;22.62;35.01;102364.69;4155058;28;20565;-54
2021/06/08 08:46:09;;;;;;;3.67;1.42;;;;;;;22.52;35.07;102363.75;4153859;28;20033;-54
2021/06/08 08:48:10;;;;;;;3.35;1.20;;;;;;;22.65;35.28;102366.09;4155341;28;20401;-54
2021/06/08 08:50:15;;;;;;;1.35;0.95;;;;;;;22.71;35.22;102365.06;4155053;28;20029;-54
2021/06/08 08:52:16;;;;;;;2.50;1.25;;;;;;;22.74;35.26;102369.25;4148679;28;20563;-55
2021/06/08 08:54:20;;;;;;;0.93;0.82;;;;;;;22.75;35.34;102377.34;4150085;28;20025;-54
2021/06/08 08:56:26;;;;;;;2.40;1.00;;;;;;;22.76;35.31;102367.06;4158190;28;20095;-51
2021/06/08 08:58:29;;;;;;;3.17;1.23;;;;;;;22.74;35.46;102360.88;4151918;28;20022;-55
2021/06/08 09:00:31;;;;;;;2.05;1.50;;;;;;;22.77;35.41;102372.38;4135289;28;20576;-54
2021/06/08 09:02:33;;;;;;;2.42;1.40;;;;;;;22.80;35.33;102365.38;4156128;28;20025;-52
2021/06/08 09:04:33;;;;;;;1.20;0.80;;;;;;;22.82;35.47;102363.19;4156068;28;20033;-50
2021/06/08 09:06:34;;;;;;;2.60;1.13;;;;;;;22.82;35.11;102365.13;4150155;28;20037;-56
2021/06/08 09:08:35;;;;;;;11.60;1.45;;;;;;;22.83;35.42;102364.00;4135788;28;20504;-49
2021/06/08 09:10:39;;;;;;;14.18;1.75;;;;;;;22.98;35.19;102364.94;4149811;28;20061;-49
2021/06/08 09:12:40;;;;;;;12.98;1.45;;;;;;;22.95;35.65;102362.69;4158000;28;20053;-51
2021/06/08 09:14:40;;;;;;;4.15;1.00;;;;;;;22.97;35.40;102356.81;4150599;28;20494;-51
2021/06/08 09:16:41;;;;;;;7.90;1.30;;;;;;;23.05;35.27;102364.72;4149723;28;20038;-50
2021/06/08 09:18:42;;;;;;;2.10;1.15;;;;;;;23.05;35.57;102367.50;4153180;28;20079;-54
2021/06/08 09:20:42;;;;;;;3.10;1.20;;;;;;;23.11;35.24;102362.78;4151999;28;20032;-52
2021/06/08 09:23:00;;;;;;;6.53;0.98;;;;;;;23.09;35.56;102365.84;4154878;28;20026;-52
2021/06/08 09:25:01;;;;;;;1.25;0.80;;;;;;;23.12;35.42;102368.09;4150140;28;20030;-54
2021/06/08 09:27:01;;;;;;;1.17;0.95;;;;;;;23.15;35.55;102370.34;4155045;28;20037;-54
2021/06/08 09:29:02;;;;;;;1.60;0.85;;;;;;;23.19;35.68;102359.47;4152380;28;20034;-48
2021/06/08 09:31:31;;;;;;;1.60;0.98;;;;;;;23.20;35.40;102366.72;4149720;28;20033;-54